createdAt,value
2022-11-10T00:01:55.085Z,97863.13
2022-11-10T00:07:15.452Z,97861.19
2022-11-10T00:12:36.027Z,97877.22
2022-11-10T00:17:56.394Z,97885.94
2022-11-10T00:23:16.657Z,97887.88
2022-11-10T00:28:37.030Z,97893.53
2022-11-10T00:33:58.339Z,97899.66
2022-11-10T00:39:18.800Z,97911.03
2022-11-10T00:44:39.199Z,97913.47
2022-11-10T00:49:59.629Z,97910.09
2022-11-10T00:55:19.741Z,97923.41
2022-11-10T01:00:40.561Z,97924.19
2022-11-10T01:06:09.744Z,97931.09
2022-11-10T01:11:30.190Z,97932.81
2022-11-10T01:16:50.253Z,97945.84
2022-11-10T01:22:10.543Z,97953.06
2022-11-10T01:27:31.403Z,97960.44
2022-11-10T01:32:51.902Z,97953.09
2022-11-10T01:38:12.235Z,97955.34
2022-11-10T01:43:33.285Z,97953.72
2022-11-10T01:48:59.171Z,97949.00
2022-11-10T01:54:26.358Z,97957.88
2022-11-10T01:59:49.179Z,97954.34
2022-11-10T02:05:09.988Z,97959.38
2022-11-10T02:10:30.470Z,97970.22
2022-11-10T02:15:50.764Z,97978.41
2022-11-10T02:21:11.276Z,97990.53
2022-11-10T02:26:31.996Z,97998.75
2022-11-10T02:31:52.377Z,98006.81
2022-11-10T02:37:12.852Z,98001.25
2022-11-10T02:42:33.221Z,98019.72
2022-11-10T02:47:53.637Z,98020.59
2022-11-10T02:53:14.144Z,98036.50
2022-11-10T02:58:34.292Z,98042.53
2022-11-10T03:03:54.580Z,98043.25
2022-11-10T03:09:15.125Z,98045.66
2022-11-10T03:14:35.835Z,98050.56
2022-11-10T03:19:55.980Z,98062.22
2022-11-10T03:25:16.320Z,98079.47
2022-11-10T03:30:37.343Z,98085.19
2022-11-10T03:35:57.626Z,98086.94
2022-11-10T03:41:19.750Z,98086.81
2022-11-10T03:46:43.366Z,98098.75
2022-11-10T03:52:04.007Z,98113.94
2022-11-10T03:57:24.172Z,98119.94
2022-11-10T04:02:44.630Z,98120.34
2022-11-10T04:08:32.658Z,98115.34
2022-11-10T04:14:11.316Z,98134.72
2022-11-10T04:19:31.641Z,98140.09
2022-11-10T04:24:51.666Z,98148.31
2022-11-10T04:30:12.216Z,98148.28
2022-11-10T04:35:32.492Z,98156.09
2022-11-10T04:40:53.455Z,98173.56
2022-11-10T04:46:24.468Z,98168.00
2022-11-10T04:51:44.693Z,98182.25
2022-11-10T04:57:05.099Z,98197.34
2022-11-10T05:02:25.452Z,98210.03
2022-11-10T05:07:48.662Z,98207.78
2022-11-10T05:13:08.834Z,98208.31
2022-11-10T05:18:29.359Z,98215.44
2022-11-10T05:23:49.651Z,98215.59
2022-11-10T05:29:09.913Z,98238.69
2022-11-10T05:34:30.346Z,98233.53
2022-11-10T05:39:50.713Z,98230.84
2022-11-10T05:45:11.085Z,98247.41
2022-11-10T05:50:31.589Z,98249.56
2022-11-10T05:55:51.937Z,98255.13
2022-11-10T06:01:12.367Z,98261.06
2022-11-10T06:06:32.750Z,98270.00
2022-11-10T06:11:53.230Z,98287.63
2022-11-10T06:17:14.480Z,98300.41
2022-11-10T06:22:34.676Z,98315.53
2022-11-10T06:27:55.257Z,98318.28
2022-11-10T06:33:15.321Z,98332.94
2022-11-10T06:38:36.089Z,98357.88
2022-11-10T06:43:56.413Z,98373.06
2022-11-10T06:49:16.566Z,98377.56
2022-11-10T06:54:37.006Z,98392.13
2022-11-10T06:59:57.217Z,98399.72
2022-11-10T07:05:17.627Z,98409.22
2022-11-10T07:10:38.033Z,98426.78
2022-11-10T07:15:58.369Z,98437.22
2022-11-10T07:21:19.098Z,98459.81
2022-11-10T07:26:39.237Z,98463.00
2022-11-10T07:31:59.765Z,98471.50
2022-11-10T07:37:20.037Z,98481.59
2022-11-10T07:42:40.779Z,98488.50
2022-11-10T07:48:03.007Z,98491.59
2022-11-10T07:53:23.369Z,98500.72
2022-11-10T07:58:44.058Z,98513.13
2022-11-10T08:04:04.554Z,98518.00
2022-11-10T08:09:24.629Z,98530.41
2022-11-10T08:14:44.940Z,98532.19
2022-11-10T08:20:05.942Z,98535.47
2022-11-10T08:25:34.190Z,98546.69
2022-11-10T08:30:55.482Z,98559.16
2022-11-10T08:36:16.015Z,98560.19
2022-11-10T08:41:36.464Z,98573.16
2022-11-10T08:46:56.841Z,98577.38
2022-11-10T08:52:17.172Z,98585.97
2022-11-10T08:57:37.627Z,98593.72
2022-11-10T09:03:13.769Z,98603.34
2022-11-10T09:08:34.289Z,98609.94
2022-11-10T09:13:54.440Z,98604.31
2022-11-10T09:19:19.704Z,98609.41
2022-11-10T09:24:40.216Z,98619.59
2022-11-10T09:30:00.488Z,98622.63
2022-11-10T09:35:21.014Z,98633.75
2022-11-10T09:41:06.774Z,98636.41
2022-11-10T09:46:32.468Z,98649.25
2022-11-10T09:51:54.071Z,98652.31
2022-11-10T09:57:19.031Z,98662.44
2022-11-10T10:02:56.548Z,98660.94
2022-11-10T10:08:33.338Z,98674.13
2022-11-10T10:14:01.352Z,98679.03
2022-11-10T10:19:24.536Z,98674.47
2022-11-10T10:24:44.733Z,98659.66
2022-11-10T10:30:17.118Z,98658.19
2022-11-10T10:35:41.825Z,98665.34
2022-11-10T10:41:30.609Z,98658.00
2022-11-10T10:46:55.295Z,98651.94
2022-11-10T10:52:18.173Z,98659.66
2022-11-10T10:57:51.417Z,98668.34
2022-11-10T11:03:21.907Z,98670.06
2022-11-10T11:08:59.171Z,98664.75
2022-11-10T11:14:28.874Z,98661.53
2022-11-10T11:19:59.917Z,98679.06
2022-11-10T11:25:35.073Z,98691.69
2022-11-10T11:31:19.278Z,98679.50
2022-11-10T11:36:48.758Z,98689.69
2022-11-10T11:42:21.165Z,98688.88
2022-11-10T11:48:22.769Z,98689.59
2022-11-10T11:54:01.276Z,98687.66
2022-11-10T11:59:43.230Z,98691.22
2022-11-10T12:05:03.596Z,98703.88
2022-11-10T12:10:33.093Z,98697.44
2022-11-10T12:16:01.739Z,98708.41
2022-11-10T12:21:54.276Z,98709.75
2022-11-10T12:27:38.246Z,98712.31
2022-11-10T12:33:22.935Z,98721.69
2022-11-10T12:39:05.136Z,98714.50
2022-11-10T12:44:37.341Z,98721.28
2022-11-10T12:50:03.842Z,98719.66
2022-11-10T12:55:39.660Z,98724.06
2022-11-10T13:01:06.239Z,98730.41
2022-11-10T13:06:37.750Z,98730.66
2022-11-10T13:12:16.738Z,98734.47
2022-11-10T13:17:39.919Z,98733.50
2022-11-10T13:23:00.339Z,98758.81
2022-11-10T13:28:48.788Z,98746.06
2022-11-10T13:34:27.022Z,98758.25
2022-11-10T13:39:47.701Z,98762.50
2022-11-10T13:45:29.892Z,98761.03
2022-11-10T13:50:56.454Z,98768.19
2022-11-10T13:56:22.855Z,98771.16
2022-11-10T14:01:43.162Z,98784.47
2022-11-10T14:07:13.032Z,98798.66
2022-11-10T14:12:40.917Z,98802.03
2022-11-10T14:18:01.443Z,98808.00
2022-11-10T14:23:30.369Z,98814.44
2022-11-10T14:28:50.359Z,98819.78
2022-11-10T14:34:16.744Z,98833.38
2022-11-10T14:39:37.385Z,98840.59
2022-11-10T14:45:18.642Z,98842.94
2022-11-10T14:50:41.057Z,98846.09
2022-11-10T14:56:03.552Z,98855.38
2022-11-10T15:01:25.202Z,98857.06
2022-11-10T15:06:48.142Z,98843.16
2022-11-10T15:12:19.559Z,98850.75
2022-11-10T15:17:45.181Z,98858.78
2022-11-10T15:23:21.625Z,98858.84
2022-11-10T15:28:42.562Z,98877.63
2022-11-10T15:34:05.230Z,98879.78
2022-11-10T15:39:27.377Z,98880.09
2022-11-10T15:44:48.421Z,98872.50
2022-11-10T15:50:12.140Z,98887.44
2022-11-10T15:55:34.541Z,98883.09
2022-11-10T16:00:54.923Z,98886.53
2022-11-10T16:06:17.101Z,98900.00
2022-11-10T16:11:38.332Z,98906.84
2022-11-10T16:16:58.959Z,98924.47
2022-11-10T16:22:19.140Z,98922.84
2022-11-10T16:27:40.593Z,98918.84
2022-11-10T16:33:01.145Z,98933.75
2022-11-10T16:38:39.408Z,98939.47
2022-11-10T16:43:59.889Z,98947.50
2022-11-10T16:49:46.769Z,98955.28
2022-11-10T16:55:09.775Z,98961.66
2022-11-10T17:00:30.086Z,98957.28
2022-11-10T17:05:50.504Z,98959.63
2022-11-10T17:11:10.921Z,98958.09
2022-11-10T17:16:37.685Z,98959.44
2022-11-10T17:21:58.023Z,98958.31
2022-11-10T17:27:20.144Z,98956.09
2022-11-10T17:33:05.698Z,98966.00
2022-11-10T17:38:29.742Z,98977.22
2022-11-10T17:43:50.056Z,98974.19
2022-11-10T17:49:10.719Z,98987.13
2022-11-10T17:54:30.864Z,99001.44
2022-11-10T17:59:51.035Z,99001.72
2022-11-10T18:05:16.850Z,99000.63
2022-11-10T18:10:41.751Z,98992.84
2022-11-10T18:16:02.141Z,99003.91
2022-11-10T18:21:22.552Z,99003.22
2022-11-10T18:26:43.093Z,99010.25
2022-11-10T18:32:03.839Z,99008.63
2022-11-10T18:37:24.437Z,99014.72
2022-11-10T18:42:44.708Z,99037.13
2022-11-10T18:48:05.406Z,99021.94
2022-11-10T18:53:26.074Z,99035.75
2022-11-10T18:58:56.190Z,99050.50
2022-11-10T19:04:16.676Z,99042.13
2022-11-10T19:09:37.038Z,99044.38
2022-11-10T19:14:57.512Z,99047.75
2022-11-10T19:20:18.234Z,99034.75
2022-11-10T19:25:38.427Z,99041.66
2022-11-10T19:31:03.118Z,99025.69
2022-11-10T19:36:28.529Z,99032.25
2022-11-10T19:41:48.669Z,99032.91
2022-11-10T19:47:09.108Z,99020.69
2022-11-10T19:52:29.912Z,99035.47
2022-11-10T19:57:50.552Z,99047.75
2022-11-10T20:03:11.500Z,99047.38
2022-11-10T20:08:32.569Z,99046.78
2022-11-10T20:13:56.078Z,99056.81
2022-11-10T20:19:16.318Z,99058.25
2022-11-10T20:24:36.906Z,99070.84
2022-11-10T20:29:57.128Z,99074.84
2022-11-10T20:35:17.299Z,99068.16
2022-11-10T20:40:44.452Z,99082.47
2022-11-10T20:46:06.676Z,99086.09
2022-11-10T20:51:27.206Z,99074.66
2022-11-10T20:56:47.448Z,99078.25
2022-11-10T21:02:12.443Z,99080.44
2022-11-10T21:07:32.701Z,99072.81
2022-11-10T21:12:53.303Z,99057.47
2022-11-10T21:18:13.717Z,99057.34
2022-11-10T21:23:34.069Z,99046.31
2022-11-10T21:28:54.684Z,99063.41
2022-11-10T21:34:15.041Z,99074.91
2022-11-10T21:39:35.696Z,99080.69
2022-11-10T21:44:55.837Z,99093.16
2022-11-10T21:50:17.591Z,99094.00
2022-11-10T21:55:37.720Z,99094.22
2022-11-10T22:01:04.131Z,99100.81
2022-11-10T22:06:44.711Z,99085.22
2022-11-10T22:12:23.236Z,99086.66
2022-11-10T22:18:01.959Z,99090.34
2022-11-10T22:23:41.934Z,99099.72
2022-11-10T22:29:02.340Z,99117.03
2022-11-10T22:34:22.701Z,99142.38
2022-11-10T22:40:01.728Z,99148.34
2022-11-10T22:45:21.881Z,99135.56
2022-11-10T22:50:42.322Z,99136.81
2022-11-10T22:56:02.678Z,99136.19
2022-11-10T23:01:23.685Z,99123.66
2022-11-10T23:06:44.066Z,99124.84
2022-11-10T23:12:04.737Z,99134.34
2022-11-10T23:17:24.799Z,99132.34
2022-11-10T23:22:45.301Z,99127.47
2022-11-10T23:28:05.728Z,99120.72
2022-11-10T23:33:31.394Z,99123.94
2022-11-10T23:38:54.578Z,99114.47
2022-11-10T23:44:17.865Z,99108.03
2022-11-10T23:49:38.033Z,99119.53
2022-11-10T23:54:58.338Z,99119.47
